sensor_id;sensor_type;location;lat;lon;timestamp;P1;durP1;ratioP1;P2;durP2;ratioP2
21546;SDS011;41275;51.912;4.388;2023-08-06T00:01:52;5.63;;;2.97;;
21546;SDS011;41275;51.912;4.388;2023-08-06T00:07:13;5.90;;;3.10;;
21546;SDS011;41275;51.912;4.388;2023-08-06T00:12:34;5.60;;;3.60;;
21546;SDS011;41275;51.912;4.388;2023-08-06T00:17:56;6.38;;;3.50;;
21546;SDS011;41275;51.912;4.388;2023-08-06T00:23:17;6.30;;;3.27;;
21546;SDS011;41275;51.912;4.388;2023-08-06T00:28:38;6.90;;;3.50;;
21546;SDS011;41275;51.912;4.388;2023-08-06T00:33:59;7.03;;;3.78;;
21546;SDS011;41275;51.912;4.388;2023-08-06T00:39:21;7.50;;;4.13;;
21546;SDS011;41275;51.912;4.388;2023-08-06T00:44:42;7.65;;;3.80;;
21546;SDS011;41275;51.912;4.388;2023-08-06T00:50:03;8.60;;;3.78;;
21546;SDS011;41275;51.912;4.388;2023-08-06T00:55:26;8.63;;;3.90;;
21546;SDS011;41275;51.912;4.388;2023-08-06T01:00:47;7.28;;;3.88;;
21546;SDS011;41275;51.912;4.388;2023-08-06T01:06:08;5.97;;;3.40;;
21546;SDS011;41275;51.912;4.388;2023-08-06T01:11:35;6.75;;;3.65;;
21546;SDS011;41275;51.912;4.388;2023-08-06T01:17:05;7.67;;;3.80;;
21546;SDS011;41275;51.912;4.388;2023-08-06T01:22:27;6.93;;;3.70;;
21546;SDS011;41275;51.912;4.388;2023-08-06T01:27:49;7.70;;;3.53;;
21546;SDS011;41275;51.912;4.388;2023-08-06T01:33:14;6.78;;;3.80;;
21546;SDS011;41275;51.912;4.388;2023-08-06T01:38:40;7.43;;;3.70;;
21546;SDS011;41275;51.912;4.388;2023-08-06T01:44:01;7.63;;;4.60;;
21546;SDS011;41275;51.912;4.388;2023-08-06T01:49:22;7.67;;;4.10;;
21546;SDS011;41275;51.912;4.388;2023-08-06T01:54:43;8.02;;;4.72;;
21546;SDS011;41275;51.912;4.388;2023-08-06T02:00:05;9.93;;;4.10;;
21546;SDS011;41275;51.912;4.388;2023-08-06T02:05:26;9.15;;;4.63;;
21546;SDS011;41275;51.912;4.388;2023-08-06T02:10:47;7.60;;;4.40;;
21546;SDS011;41275;51.912;4.388;2023-08-06T02:16:09;7.40;;;4.60;;
21546;SDS011;41275;51.912;4.388;2023-08-06T02:21:30;7.82;;;4.60;;
21546;SDS011;41275;51.912;4.388;2023-08-06T02:26:52;6.57;;;4.33;;
21546;SDS011;41275;51.912;4.388;2023-08-06T02:32:16;7.15;;;3.90;;
21546;SDS011;41275;51.912;4.388;2023-08-06T02:37:37;4.90;;;2.78;;
21546;SDS011;41275;51.912;4.388;2023-08-06T02:42:58;2.97;;;1.80;;
21546;SDS011;41275;51.912;4.388;2023-08-06T02:48:19;2.88;;;1.50;;
21546;SDS011;41275;51.912;4.388;2023-08-06T02:53:41;2.53;;;1.58;;
21546;SDS011;41275;51.912;4.388;2023-08-06T02:59:02;3.70;;;1.50;;
21546;SDS011;41275;51.912;4.388;2023-08-06T03:04:23;1.85;;;0.95;;
21546;SDS011;41275;51.912;4.388;2023-08-06T03:09:44;1.80;;;0.80;;
21546;SDS011;41275;51.912;4.388;2023-08-06T03:15:06;1.25;;;0.70;;
21546;SDS011;41275;51.912;4.388;2023-08-06T03:20:27;1.15;;;0.68;;
21546;SDS011;41275;51.912;4.388;2023-08-06T03:25:48;1.20;;;0.70;;
21546;SDS011;41275;51.912;4.388;2023-08-06T03:31:10;1.73;;;0.80;;
21546;SDS011;41275;51.912;4.388;2023-08-06T03:36:31;2.72;;;1.35;;
21546;SDS011;41275;51.912;4.388;2023-08-06T03:41:52;4.43;;;1.83;;
21546;SDS011;41275;51.912;4.388;2023-08-06T03:47:13;3.47;;;2.13;;
21546;SDS011;41275;51.912;4.388;2023-08-06T03:52:34;2.08;;;1.20;;
21546;SDS011;41275;51.912;4.388;2023-08-06T03:57:56;2.80;;;1.15;;
21546;SDS011;41275;51.912;4.388;2023-08-06T04:03:17;4.57;;;1.50;;
21546;SDS011;41275;51.912;4.388;2023-08-06T04:08:38;2.45;;;1.10;;
21546;SDS011;41275;51.912;4.388;2023-08-06T04:13:59;3.80;;;1.20;;
21546;SDS011;41275;51.912;4.388;2023-08-06T04:19:20;2.05;;;0.90;;
21546;SDS011;41275;51.912;4.388;2023-08-06T04:24:42;3.17;;;1.50;;
21546;SDS011;41275;51.912;4.388;2023-08-06T04:30:04;3.25;;;1.35;;
21546;SDS011;41275;51.912;4.388;2023-08-06T04:35:26;5.83;;;1.63;;
21546;SDS011;41275;51.912;4.388;2023-08-06T04:40:47;4.60;;;1.50;;
21546;SDS011;41275;51.912;4.388;2023-08-06T04:46:08;6.93;;;1.60;;
21546;SDS011;41275;51.912;4.388;2023-08-06T04:51:29;5.35;;;1.95;;
21546;SDS011;41275;51.912;4.388;2023-08-06T04:56:50;4.63;;;2.00;;
21546;SDS011;41275;51.912;4.388;2023-08-06T05:02:12;7.43;;;2.50;;
21546;SDS011;41275;51.912;4.388;2023-08-06T05:07:33;8.73;;;2.35;;
21546;SDS011;41275;51.912;4.388;2023-08-06T05:12:54;6.40;;;2.28;;
21546;SDS011;41275;51.912;4.388;2023-08-06T05:18:15;5.53;;;1.85;;
21546;SDS011;41275;51.912;4.388;2023-08-06T05:23:37;6.47;;;2.30;;
21546;SDS011;41275;51.912;4.388;2023-08-06T05:28:58;8.23;;;1.67;;
21546;SDS011;41275;51.912;4.388;2023-08-06T05:34:19;4.95;;;1.88;;
21546;SDS011;41275;51.912;4.388;2023-08-06T05:39:40;4.07;;;1.33;;
21546;SDS011;41275;51.912;4.388;2023-08-06T05:45:02;3.83;;;1.03;;
21546;SDS011;41275;51.912;4.388;2023-08-06T05:50:23;1.93;;;0.83;;
21546;SDS011;41275;51.912;4.388;2023-08-06T05:55:45;1.63;;;0.80;;
21546;SDS011;41275;51.912;4.388;2023-08-06T06:01:06;1.57;;;0.60;;
21546;SDS011;41275;51.912;4.388;2023-08-06T06:06:27;2.75;;;1.02;;
21546;SDS011;41275;51.912;4.388;2023-08-06T06:11:48;2.97;;;1.00;;
21546;SDS011;41275;51.912;4.388;2023-08-06T06:17:10;1.70;;;0.80;;
21546;SDS011;41275;51.912;4.388;2023-08-06T06:22:32;4.45;;;0.85;;
21546;SDS011;41275;51.912;4.388;2023-08-06T06:27:53;3.90;;;0.90;;
21546;SDS011;41275;51.912;4.388;2023-08-06T06:33:14;3.07;;;0.90;;
21546;SDS011;41275;51.912;4.388;2023-08-06T06:38:35;3.13;;;1.33;;
21546;SDS011;41275;51.912;4.388;2023-08-06T06:43:56;6.43;;;1.55;;
21546;SDS011;41275;51.912;4.388;2023-08-06T06:49:18;3.25;;;1.30;;
21546;SDS011;41275;51.912;4.388;2023-08-06T06:54:39;5.87;;;1.17;;
21546;SDS011;41275;51.912;4.388;2023-08-06T07:00:00;4.10;;;1.42;;
21546;SDS011;41275;51.912;4.388;2023-08-06T07:05:21;3.72;;;1.10;;
21546;SDS011;41275;51.912;4.388;2023-08-06T07:10:43;5.32;;;1.50;;
21546;SDS011;41275;51.912;4.388;2023-08-06T07:16:04;3.10;;;1.30;;
21546;SDS011;41275;51.912;4.388;2023-08-06T07:21:25;2.57;;;1.10;;
21546;SDS011;41275;51.912;4.388;2023-08-06T07:26:46;4.70;;;1.00;;
21546;SDS011;41275;51.912;4.388;2023-08-06T07:32:08;4.63;;;1.20;;
21546;SDS011;41275;51.912;4.388;2023-08-06T07:37:29;2.27;;;0.87;;
21546;SDS011;41275;51.912;4.388;2023-08-06T07:42:50;5.50;;;0.98;;
21546;SDS011;41275;51.912;4.388;2023-08-06T07:48:11;3.65;;;0.80;;
21546;SDS011;41275;51.912;4.388;2023-08-06T07:53:33;3.00;;;0.70;;
21546;SDS011;41275;51.912;4.388;2023-08-06T07:58:54;5.13;;;0.90;;
21546;SDS011;41275;51.912;4.388;2023-08-06T08:04:15;2.33;;;0.63;;
21546;SDS011;41275;51.912;4.388;2023-08-06T08:09:36;3.58;;;0.60;;
21546;SDS011;41275;51.912;4.388;2023-08-06T08:14:58;3.47;;;0.88;;
21546;SDS011;41275;51.912;4.388;2023-08-06T08:20:19;3.97;;;1.00;;
21546;SDS011;41275;51.912;4.388;2023-08-06T08:25:41;2.88;;;0.70;;
21546;SDS011;41275;51.912;4.388;2023-08-06T08:31:02;2.67;;;0.83;;
21546;SDS011;41275;51.912;4.388;2023-08-06T08:36:23;3.67;;;0.80;;
21546;SDS011;41275;51.912;4.388;2023-08-06T08:41:44;3.20;;;0.70;;
21546;SDS011;41275;51.912;4.388;2023-08-06T08:47:06;1.58;;;0.50;;
21546;SDS011;41275;51.912;4.388;2023-08-06T08:52:29;2.40;;;0.90;;
21546;SDS011;41275;51.912;4.388;2023-08-06T08:57:52;3.58;;;0.90;;
21546;SDS011;41275;51.912;4.388;2023-08-06T09:03:13;3.40;;;0.80;;
21546;SDS011;41275;51.912;4.388;2023-08-06T09:08:36;2.03;;;0.70;;
21546;SDS011;41275;51.912;4.388;2023-08-06T09:14:02;2.97;;;0.77;;
21546;SDS011;41275;51.912;4.388;2023-08-06T09:19:23;2.43;;;0.80;;
21546;SDS011;41275;51.912;4.388;2023-08-06T09:24:44;1.55;;;0.60;;
21546;SDS011;41275;51.912;4.388;2023-08-06T09:30:06;3.30;;;0.70;;
21546;SDS011;41275;51.912;4.388;2023-08-06T09:35:28;2.70;;;0.77;;
21546;SDS011;41275;51.912;4.388;2023-08-06T09:40:51;4.22;;;0.90;;
21546;SDS011;41275;51.912;4.388;2023-08-06T09:46:13;4.20;;;0.90;;
21546;SDS011;41275;51.912;4.388;2023-08-06T09:51:35;1.85;;;0.90;;
21546;SDS011;41275;51.912;4.388;2023-08-06T09:57:00;4.00;;;0.93;;
21546;SDS011;41275;51.912;4.388;2023-08-06T10:02:21;2.97;;;0.80;;
21546;SDS011;41275;51.912;4.388;2023-08-06T10:07:47;1.45;;;0.63;;
21546;SDS011;41275;51.912;4.388;2023-08-06T10:13:09;2.37;;;0.60;;
21546;SDS011;41275;51.912;4.388;2023-08-06T10:18:32;1.92;;;0.80;;
21546;SDS011;41275;51.912;4.388;2023-08-06T10:23:54;1.80;;;0.60;;
21546;SDS011;41275;51.912;4.388;2023-08-06T10:34:57;2.72;;;0.65;;
21546;SDS011;41275;51.912;4.388;2023-08-06T10:40:22;1.97;;;0.67;;
21546;SDS011;41275;51.912;4.388;2023-08-06T10:45:49;2.47;;;0.68;;
21546;SDS011;41275;51.912;4.388;2023-08-06T10:51:12;2.97;;;0.63;;
21546;SDS011;41275;51.912;4.388;2023-08-06T10:56:39;3.97;;;0.60;;
21546;SDS011;41275;51.912;4.388;2023-08-06T11:02:01;5.00;;;0.67;;
21546;SDS011;41275;51.912;4.388;2023-08-06T11:07:24;2.92;;;0.50;;
21546;SDS011;41275;51.912;4.388;2023-08-06T11:12:49;4.30;;;0.88;;
21546;SDS011;41275;51.912;4.388;2023-08-06T11:18:11;2.95;;;0.90;;
21546;SDS011;41275;51.912;4.388;2023-08-06T11:23:35;3.40;;;0.80;;
21546;SDS011;41275;51.912;4.388;2023-08-06T11:28:57;2.97;;;0.60;;
21546;SDS011;41275;51.912;4.388;2023-08-06T11:34:18;5.50;;;0.80;;
21546;SDS011;41275;51.912;4.388;2023-08-06T11:39:43;2.80;;;0.80;;
21546;SDS011;41275;51.912;4.388;2023-08-06T11:45:07;2.65;;;0.68;;
21546;SDS011;41275;51.912;4.388;2023-08-06T11:50:30;3.35;;;0.60;;
21546;SDS011;41275;51.912;4.388;2023-08-06T11:55:52;1.63;;;0.60;;
21546;SDS011;41275;51.912;4.388;2023-08-06T12:01:13;2.60;;;0.75;;
21546;SDS011;41275;51.912;4.388;2023-08-06T12:06:41;2.83;;;0.60;;
21546;SDS011;41275;51.912;4.388;2023-08-06T12:12:03;3.10;;;0.67;;
21546;SDS011;41275;51.912;4.388;2023-08-06T12:17:25;2.28;;;0.65;;
21546;SDS011;41275;51.912;4.388;2023-08-06T12:22:46;2.35;;;0.60;;
21546;SDS011;41275;51.912;4.388;2023-08-06T12:28:07;2.42;;;0.60;;
21546;SDS011;41275;51.912;4.388;2023-08-06T12:33:30;2.65;;;0.45;;
21546;SDS011;41275;51.912;4.388;2023-08-06T12:38:51;1.67;;;0.47;;
21546;SDS011;41275;51.912;4.388;2023-08-06T12:44:12;2.45;;;0.68;;
21546;SDS011;41275;51.912;4.388;2023-08-06T12:49:34;1.80;;;0.30;;
21546;SDS011;41275;51.912;4.388;2023-08-06T12:54:56;2.87;;;0.30;;
21546;SDS011;41275;51.912;4.388;2023-08-06T13:00:17;1.00;;;0.20;;
21546;SDS011;41275;51.912;4.388;2023-08-06T13:05:38;0.65;;;0.20;;
21546;SDS011;41275;51.912;4.388;2023-08-06T13:11:00;1.03;;;0.30;;
21546;SDS011;41275;51.912;4.388;2023-08-06T13:16:21;4.55;;;0.80;;
21546;SDS011;41275;51.912;4.388;2023-08-06T13:27:06;4.80;;;1.15;;
21546;SDS011;41275;51.912;4.388;2023-08-06T13:32:28;2.73;;;0.60;;
21546;SDS011;41275;51.912;4.388;2023-08-06T13:37:49;4.13;;;0.95;;
21546;SDS011;41275;51.912;4.388;2023-08-06T13:43:10;4.93;;;1.00;;
21546;SDS011;41275;51.912;4.388;2023-08-06T13:48:31;7.40;;;0.90;;
21546;SDS011;41275;51.912;4.388;2023-08-06T13:53:53;3.07;;;0.60;;
21546;SDS011;41275;51.912;4.388;2023-08-06T13:59:15;7.68;;;1.10;;
21546;SDS011;41275;51.912;4.388;2023-08-06T14:04:37;3.92;;;0.73;;
21546;SDS011;41275;51.912;4.388;2023-08-06T14:09:58;2.20;;;0.68;;
21546;SDS011;41275;51.912;4.388;2023-08-06T14:15:20;4.43;;;0.52;;
21546;SDS011;41275;51.912;4.388;2023-08-06T14:20:41;4.13;;;0.50;;
21546;SDS011;41275;51.912;4.388;2023-08-06T14:26:03;5.35;;;1.00;;
21546;SDS011;41275;51.912;4.388;2023-08-06T14:31:24;6.10;;;1.13;;
21546;SDS011;41275;51.912;4.388;2023-08-06T14:36:46;5.50;;;0.50;;
21546;SDS011;41275;51.912;4.388;2023-08-06T14:42:07;6.28;;;0.90;;
21546;SDS011;41275;51.912;4.388;2023-08-06T14:47:28;3.42;;;0.80;;
21546;SDS011;41275;51.912;4.388;2023-08-06T14:52:49;8.15;;;0.98;;
21546;SDS011;41275;51.912;4.388;2023-08-06T14:58:11;8.82;;;1.10;;
21546;SDS011;41275;51.912;4.388;2023-08-06T15:03:32;7.30;;;1.30;;
21546;SDS011;41275;51.912;4.388;2023-08-06T15:08:54;6.18;;;0.55;;
21546;SDS011;41275;51.912;4.388;2023-08-06T15:14:19;3.50;;;0.30;;
21546;SDS011;41275;51.912;4.388;2023-08-06T15:19:40;2.65;;;0.52;;
21546;SDS011;41275;51.912;4.388;2023-08-06T15:25:01;2.35;;;0.47;;
21546;SDS011;41275;51.912;4.388;2023-08-06T15:30:23;3.58;;;0.70;;
21546;SDS011;41275;51.912;4.388;2023-08-06T15:35:44;8.47;;;0.80;;
21546;SDS011;41275;51.912;4.388;2023-08-06T15:41:05;7.78;;;1.33;;
21546;SDS011;41275;51.912;4.388;2023-08-06T15:46:26;5.77;;;0.83;;
21546;SDS011;41275;51.912;4.388;2023-08-06T15:51:48;5.40;;;0.80;;
21546;SDS011;41275;51.912;4.388;2023-08-06T15:57:09;5.00;;;1.02;;
21546;SDS011;41275;51.912;4.388;2023-08-06T16:02:30;9.33;;;1.03;;
21546;SDS011;41275;51.912;4.388;2023-08-06T16:07:51;4.68;;;1.00;;
21546;SDS011;41275;51.912;4.388;2023-08-06T16:13:13;5.77;;;1.30;;
21546;SDS011;41275;51.912;4.388;2023-08-06T16:18:34;6.95;;;0.80;;
21546;SDS011;41275;51.912;4.388;2023-08-06T16:23:55;3.97;;;0.70;;
21546;SDS011;41275;51.912;4.388;2023-08-06T16:29:16;5.07;;;0.60;;
21546;SDS011;41275;51.912;4.388;2023-08-06T16:34:38;11.65;;;1.38;;
21546;SDS011;41275;51.912;4.388;2023-08-06T16:39:59;4.60;;;0.80;;
21546;SDS011;41275;51.912;4.388;2023-08-06T16:45:21;4.50;;;0.98;;
21546;SDS011;41275;51.912;4.388;2023-08-06T16:50:42;9.05;;;1.10;;
21546;SDS011;41275;51.912;4.388;2023-08-06T16:56:03;8.00;;;1.50;;
21546;SDS011;41275;51.912;4.388;2023-08-06T17:01:28;5.63;;;1.00;;
21546;SDS011;41275;51.912;4.388;2023-08-06T17:06:50;6.95;;;1.00;;
21546;SDS011;41275;51.912;4.388;2023-08-06T17:12:14;5.28;;;1.02;;
21546;SDS011;41275;51.912;4.388;2023-08-06T17:17:40;5.88;;;1.10;;
21546;SDS011;41275;51.912;4.388;2023-08-06T17:23:01;7.73;;;1.50;;
21546;SDS011;41275;51.912;4.388;2023-08-06T17:28:25;6.63;;;1.10;;
21546;SDS011;41275;51.912;4.388;2023-08-06T17:33:47;3.63;;;0.85;;
21546;SDS011;41275;51.912;4.388;2023-08-06T17:39:08;8.68;;;1.70;;
21546;SDS011;41275;51.912;4.388;2023-08-06T17:44:30;6.93;;;1.40;;
21546;SDS011;41275;51.912;4.388;2023-08-06T17:49:51;6.33;;;1.00;;
21546;SDS011;41275;51.912;4.388;2023-08-06T17:55:12;5.95;;;0.73;;
21546;SDS011;41275;51.912;4.388;2023-08-06T18:00:34;6.45;;;0.60;;
21546;SDS011;41275;51.912;4.388;2023-08-06T18:05:58;5.68;;;0.77;;
21546;SDS011;41275;51.912;4.388;2023-08-06T18:11:20;4.47;;;0.60;;
21546;SDS011;41275;51.912;4.388;2023-08-06T18:16:41;5.13;;;0.40;;
21546;SDS011;41275;51.912;4.388;2023-08-06T18:22:02;5.68;;;1.00;;
21546;SDS011;41275;51.912;4.388;2023-08-06T18:27:24;3.27;;;0.80;;
21546;SDS011;41275;51.912;4.388;2023-08-06T18:32:45;4.75;;;1.65;;
21546;SDS011;41275;51.912;4.388;2023-08-06T18:38:07;6.60;;;1.40;;
21546;SDS011;41275;51.912;4.388;2023-08-06T18:43:28;6.13;;;1.27;;
21546;SDS011;41275;51.912;4.388;2023-08-06T18:48:49;7.73;;;1.57;;
21546;SDS011;41275;51.912;4.388;2023-08-06T18:54:11;5.45;;;1.10;;
21546;SDS011;41275;51.912;4.388;2023-08-06T18:59:32;7.80;;;1.13;;
21546;SDS011;41275;51.912;4.388;2023-08-06T19:04:53;5.30;;;1.10;;
21546;SDS011;41275;51.912;4.388;2023-08-06T19:10:15;7.78;;;1.38;;
21546;SDS011;41275;51.912;4.388;2023-08-06T19:15:37;7.22;;;1.00;;
21546;SDS011;41275;51.912;4.388;2023-08-06T19:20:59;5.65;;;1.00;;
21546;SDS011;41275;51.912;4.388;2023-08-06T19:26:20;6.40;;;1.30;;
21546;SDS011;41275;51.912;4.388;2023-08-06T19:31:42;8.63;;;0.90;;
21546;SDS011;41275;51.912;4.388;2023-08-06T19:37:03;9.00;;;1.58;;
21546;SDS011;41275;51.912;4.388;2023-08-06T19:42:24;6.82;;;1.60;;
21546;SDS011;41275;51.912;4.388;2023-08-06T19:47:46;7.35;;;1.10;;
21546;SDS011;41275;51.912;4.388;2023-08-06T19:53:07;5.57;;;1.08;;
21546;SDS011;41275;51.912;4.388;2023-08-06T19:58:29;6.75;;;1.20;;
21546;SDS011;41275;51.912;4.388;2023-08-06T20:03:51;5.17;;;1.00;;
21546;SDS011;41275;51.912;4.388;2023-08-06T20:09:13;4.95;;;1.20;;
21546;SDS011;41275;51.912;4.388;2023-08-06T20:14:35;5.40;;;1.20;;
21546;SDS011;41275;51.912;4.388;2023-08-06T20:19:58;8.20;;;1.50;;
21546;SDS011;41275;51.912;4.388;2023-08-06T20:25:20;6.70;;;1.13;;
21546;SDS011;41275;51.912;4.388;2023-08-06T20:30:41;8.48;;;1.38;;
21546;SDS011;41275;51.912;4.388;2023-08-06T20:36:03;6.47;;;1.48;;
21546;SDS011;41275;51.912;4.388;2023-08-06T20:41:25;5.53;;;1.08;;
21546;SDS011;41275;51.912;4.388;2023-08-06T20:46:46;8.27;;;1.20;;
21546;SDS011;41275;51.912;4.388;2023-08-06T20:52:07;6.03;;;1.30;;
21546;SDS011;41275;51.912;4.388;2023-08-06T20:57:28;4.22;;;1.02;;
21546;SDS011;41275;51.912;4.388;2023-08-06T21:02:49;7.47;;;1.30;;
21546;SDS011;41275;51.912;4.388;2023-08-06T21:08:11;8.07;;;1.50;;
21546;SDS011;41275;51.912;4.388;2023-08-06T21:13:32;7.93;;;1.20;;
21546;SDS011;41275;51.912;4.388;2023-08-06T21:18:53;6.33;;;1.23;;
21546;SDS011;41275;51.912;4.388;2023-08-06T21:24:14;9.35;;;1.45;;
21546;SDS011;41275;51.912;4.388;2023-08-06T21:29:35;10.25;;;1.92;;
21546;SDS011;41275;51.912;4.388;2023-08-06T21:34:57;9.20;;;1.73;;
21546;SDS011;41275;51.912;4.388;2023-08-06T21:40:18;8.90;;;1.55;;
21546;SDS011;41275;51.912;4.388;2023-08-06T21:45:39;6.05;;;1.40;;
21546;SDS011;41275;51.912;4.388;2023-08-06T21:51:04;11.03;;;1.73;;
21546;SDS011;41275;51.912;4.388;2023-08-06T21:56:29;11.93;;;1.25;;
21546;SDS011;41275;51.912;4.388;2023-08-06T22:01:50;8.37;;;1.33;;
21546;SDS011;41275;51.912;4.388;2023-08-06T22:07:12;7.10;;;1.20;;
21546;SDS011;41275;51.912;4.388;2023-08-06T22:12:33;7.03;;;1.25;;
21546;SDS011;41275;51.912;4.388;2023-08-06T22:17:54;8.17;;;1.47;;
21546;SDS011;41275;51.912;4.388;2023-08-06T22:23:15;7.65;;;1.30;;
21546;SDS011;41275;51.912;4.388;2023-08-06T22:28:36;8.85;;;1.52;;
21546;SDS011;41275;51.912;4.388;2023-08-06T22:33:58;4.95;;;1.20;;
21546;SDS011;41275;51.912;4.388;2023-08-06T22:39:19;6.63;;;1.40;;
21546;SDS011;41275;51.912;4.388;2023-08-06T22:44:40;4.20;;;1.10;;
21546;SDS011;41275;51.912;4.388;2023-08-06T22:50:01;8.20;;;1.17;;
21546;SDS011;41275;51.912;4.388;2023-08-06T22:55:23;7.65;;;1.33;;
21546;SDS011;41275;51.912;4.388;2023-08-06T23:00:45;7.10;;;1.30;;
21546;SDS011;41275;51.912;4.388;2023-08-06T23:06:06;9.83;;;1.23;;
21546;SDS011;41275;51.912;4.388;2023-08-06T23:11:29;6.00;;;0.90;;
21546;SDS011;41275;51.912;4.388;2023-08-06T23:16:50;7.22;;;1.10;;
21546;SDS011;41275;51.912;4.388;2023-08-06T23:22:12;9.68;;;1.40;;
21546;SDS011;41275;51.912;4.388;2023-08-06T23:27:33;10.02;;;1.40;;
21546;SDS011;41275;51.912;4.388;2023-08-06T23:32:54;8.10;;;1.40;;
21546;SDS011;41275;51.912;4.388;2023-08-06T23:38:15;8.03;;;1.27;;
21546;SDS011;41275;51.912;4.388;2023-08-06T23:43:37;7.75;;;1.33;;
21546;SDS011;41275;51.912;4.388;2023-08-06T23:48:59;3.05;;;1.00;;
21546;SDS011;41275;51.912;4.388;2023-08-06T23:54:20;5.47;;;1.00;;
21546;SDS011;41275;51.912;4.388;2023-08-06T23:59:41;7.13;;;1.30;;
